createdAt,value
2023-02-19T00:01:45.154Z,5.57
2023-02-19T00:04:20.084Z,4.22
2023-02-19T00:06:47.100Z,4.63
2023-02-19T00:09:18.597Z,4.93
2023-02-19T00:11:48.394Z,5.72
2023-02-19T00:14:21.045Z,7.55
2023-02-19T00:16:48.082Z,5.43
2023-02-19T00:19:20.097Z,5.53
2023-02-19T00:21:47.184Z,3.88
2023-02-19T00:24:18.556Z,2.25
2023-02-19T00:26:49.020Z,6.38
2023-02-19T00:29:20.525Z,6.72
2023-02-19T00:31:47.520Z,10.45
2023-02-19T00:34:17.889Z,6.22
2023-02-19T00:36:52.038Z,3.97
2023-02-19T00:39:18.861Z,3.90
2023-02-19T00:41:46.659Z,5.22
2023-02-19T00:44:13.935Z,2.97
2023-02-19T00:46:42.320Z,5.72
2023-02-19T00:49:17.738Z,5.53
2023-02-19T00:51:44.574Z,6.68
2023-02-19T00:54:11.778Z,7.35
2023-02-19T00:56:38.372Z,7.32
2023-02-19T00:59:05.323Z,8.77
2023-02-19T01:01:31.944Z,7.35
2023-02-19T01:03:58.446Z,6.28
2023-02-19T01:06:24.974Z,3.60
2023-02-19T01:08:51.566Z,2.75
2023-02-19T01:11:21.383Z,4.68
2023-02-19T01:13:51.671Z,4.15
2023-02-19T01:16:24.788Z,3.53
2023-02-19T01:18:51.401Z,4.75
2023-02-19T01:21:22.943Z,4.68
2023-02-19T01:23:53.935Z,3.88
2023-02-19T01:26:23.998Z,3.58
2023-02-19T01:28:50.574Z,3.45
2023-02-19T01:31:21.941Z,4.15
2023-02-19T01:33:55.015Z,3.90
2023-02-19T01:36:22.107Z,5.80
2023-02-19T01:38:50.428Z,9.75
2023-02-19T01:41:21.111Z,5.28
2023-02-19T01:44:13.670Z,10.45
2023-02-19T01:46:42.260Z,8.50
2023-02-19T01:49:17.554Z,6.95
2023-02-19T01:52:14.597Z,7.30
2023-02-19T01:54:44.137Z,7.22
2023-02-19T01:57:21.438Z,7.68
2023-02-19T01:59:55.183Z,8.30
2023-02-19T02:02:25.057Z,5.65
2023-02-19T02:04:52.315Z,7.43
2023-02-19T02:07:37.819Z,5.78
2023-02-19T02:10:22.841Z,11.63
2023-02-19T02:12:57.819Z,6.70
2023-02-19T02:15:33.732Z,6.75
2023-02-19T02:18:08.497Z,9.55
2023-02-19T02:20:52.852Z,5.72
2023-02-19T02:23:57.037Z,8.07
2023-02-19T02:26:45.498Z,6.72
2023-02-19T02:29:42.878Z,8.48
2023-02-19T02:32:18.339Z,6.28
2023-02-19T02:34:59.557Z,8.30
2023-02-19T02:37:30.548Z,6.45
2023-02-19T02:39:58.814Z,5.43
2023-02-19T02:42:28.119Z,4.60
2023-02-19T02:45:32.078Z,5.10
2023-02-19T02:47:58.590Z,2.72
2023-02-19T02:50:28.295Z,3.30
2023-02-19T02:53:21.781Z,6.18
2023-02-19T02:55:53.855Z,2.22
2023-02-19T02:58:24.654Z,2.90
2023-02-19T03:01:16.091Z,2.20
2023-02-19T03:03:45.825Z,7.40
2023-02-19T03:06:17.154Z,8.73
2023-02-19T03:08:59.549Z,6.50
2023-02-19T03:11:44.735Z,6.22
2023-02-19T03:14:35.079Z,6.82
2023-02-19T03:17:36.966Z,5.22
2023-02-19T03:20:08.103Z,3.17
2023-02-19T03:22:36.769Z,2.30
2023-02-19T03:25:33.470Z,3.17
2023-02-19T03:28:03.513Z,2.20
2023-02-19T03:30:33.841Z,2.20
2023-02-19T03:33:08.241Z,3.28
2023-02-19T03:35:45.845Z,4.50
2023-02-19T03:38:18.713Z,1.70
2023-02-19T03:40:56.618Z,2.25
2023-02-19T03:43:38.810Z,7.63
2023-02-19T03:46:14.717Z,2.72
2023-02-19T03:48:52.934Z,3.58
2023-02-19T03:51:39.244Z,2.97
2023-02-19T03:54:15.568Z,2.45
2023-02-19T03:56:46.998Z,2.17
2023-02-19T03:59:18.871Z,2.83
2023-02-19T04:02:02.091Z,1.77
2023-02-19T04:04:33.244Z,2.78
2023-02-19T04:07:00.194Z,2.15
2023-02-19T04:09:38.672Z,5.20
2023-02-19T04:12:06.908Z,2.25
2023-02-19T04:14:42.021Z,5.47
2023-02-19T04:17:19.307Z,3.15
2023-02-19T04:19:48.384Z,2.80
2023-02-19T04:22:17.126Z,4.35
2023-02-19T04:24:49.233Z,2.65
2023-02-19T04:27:16.833Z,2.25
2023-02-19T04:29:43.708Z,2.25
2023-02-19T04:32:11.709Z,1.55
2023-02-19T04:34:38.402Z,1.63
2023-02-19T04:37:05.727Z,2.55
2023-02-19T04:39:32.510Z,4.97
2023-02-19T04:42:01.716Z,2.55
2023-02-19T04:44:31.758Z,1.83
2023-02-19T04:47:01.569Z,1.80
2023-02-19T04:49:30.490Z,2.03
2023-02-19T04:51:57.141Z,2.38
2023-02-19T04:54:23.781Z,2.97
2023-02-19T04:56:50.786Z,4.47
2023-02-19T04:59:17.634Z,3.25
2023-02-19T05:01:44.370Z,2.53
2023-02-19T05:04:10.958Z,2.15
2023-02-19T05:06:37.570Z,5.63
2023-02-19T05:09:04.144Z,2.60
2023-02-19T05:11:33.384Z,2.33
2023-02-19T05:14:03.230Z,2.47
2023-02-19T05:16:30.153Z,2.90
2023-02-19T05:18:57.164Z,2.75
2023-02-19T05:21:23.696Z,2.13
2023-02-19T05:23:50.260Z,1.50
2023-02-19T05:26:22.539Z,1.67
2023-02-19T05:28:52.601Z,2.50
2023-02-19T05:31:19.513Z,3.05
2023-02-19T05:33:51.143Z,1.90
2023-02-19T05:36:19.700Z,4.32
2023-02-19T05:38:46.815Z,2.63
2023-02-19T05:41:16.223Z,4.13
2023-02-19T05:43:44.458Z,5.25
2023-02-19T05:46:13.226Z,3.03
2023-02-19T05:48:40.290Z,4.18
2023-02-19T05:51:12.973Z,4.07
2023-02-19T05:53:40.715Z,3.97
2023-02-19T05:56:26.047Z,3.28
2023-02-19T05:58:53.984Z,4.07
2023-02-19T06:01:22.262Z,3.88
2023-02-19T06:03:48.807Z,5.10
2023-02-19T06:06:17.103Z,2.53
2023-02-19T06:08:43.945Z,2.97
2023-02-19T06:11:11.162Z,2.83
2023-02-19T06:13:37.750Z,2.28
2023-02-19T06:16:05.292Z,2.47
2023-02-19T06:18:32.805Z,2.78
2023-02-19T06:21:07.919Z,2.92
2023-02-19T06:23:34.688Z,3.85
2023-02-19T06:26:16.229Z,2.00
2023-02-19T06:28:44.995Z,2.30
2023-02-19T06:31:12.389Z,3.63
2023-02-19T06:33:40.612Z,2.15
2023-02-19T06:36:10.975Z,2.75
2023-02-19T06:38:37.471Z,2.35
2023-02-19T06:41:05.784Z,4.88
2023-02-19T06:43:35.883Z,3.40
2023-02-19T06:46:05.241Z,3.15
2023-02-19T06:48:35.363Z,3.38
2023-02-19T06:51:05.142Z,3.13
2023-02-19T06:53:34.620Z,4.18
2023-02-19T06:56:07.161Z,3.17
2023-02-19T06:58:34.483Z,3.70
2023-02-19T07:01:02.935Z,5.28
2023-02-19T07:03:32.026Z,7.03
2023-02-19T07:06:02.279Z,6.15
2023-02-19T07:08:29.727Z,5.65
2023-02-19T07:10:58.673Z,9.23
2023-02-19T07:13:30.783Z,8.40
2023-02-19T07:16:07.943Z,6.65
2023-02-19T07:18:34.970Z,7.50
2023-02-19T07:21:09.043Z,8.20
2023-02-19T07:23:36.107Z,9.43
2023-02-19T07:26:03.678Z,7.38
2023-02-19T07:28:33.382Z,7.13
2023-02-19T07:31:04.857Z,10.25
2023-02-19T07:33:34.415Z,11.30
2023-02-19T07:36:06.469Z,8.18
2023-02-19T07:38:33.050Z,10.10
2023-02-19T07:41:02.973Z,11.93
2023-02-19T07:43:35.472Z,12.93
2023-02-19T07:46:07.070Z,10.38
2023-02-19T07:48:35.302Z,9.52
2023-02-19T07:51:03.764Z,10.15
2023-02-19T07:53:35.211Z,9.73
2023-02-19T07:56:08.000Z,9.15
2023-02-19T07:58:35.272Z,11.05
2023-02-19T08:01:10.653Z,9.02
2023-02-19T08:03:38.902Z,9.35
2023-02-19T08:06:06.433Z,8.90
2023-02-19T08:08:33.037Z,10.65
2023-02-19T08:11:20.472Z,10.07
2023-02-19T08:13:49.657Z,9.48
2023-02-19T08:16:24.385Z,11.70
2023-02-19T08:19:02.104Z,7.65
2023-02-19T08:21:28.698Z,7.55
2023-02-19T08:23:55.184Z,8.30
2023-02-19T08:26:21.680Z,8.23
2023-02-19T08:28:48.876Z,18.27
2023-02-19T08:31:15.600Z,16.60
2023-02-19T08:33:42.304Z,15.27
2023-02-19T08:36:09.801Z,10.90
2023-02-19T08:38:37.714Z,16.17
2023-02-19T08:41:22.091Z,16.85
2023-02-19T08:43:48.608Z,16.52
2023-02-19T08:46:15.473Z,10.30
2023-02-19T08:48:42.240Z,9.18
2023-02-19T08:51:11.144Z,11.48
2023-02-19T08:53:39.872Z,6.68
2023-02-19T08:56:15.550Z,8.45
2023-02-19T08:58:42.262Z,10.57
2023-02-19T09:01:14.856Z,10.85
2023-02-19T09:03:42.720Z,9.88
2023-02-19T09:06:15.752Z,8.45
2023-02-19T09:08:42.245Z,9.88
2023-02-19T09:11:08.926Z,10.70
2023-02-19T09:13:35.607Z,9.43
2023-02-19T09:16:05.924Z,12.15
2023-02-19T09:18:33.075Z,8.32
2023-02-19T09:21:04.639Z,10.25
2023-02-19T09:23:36.391Z,6.78
2023-02-19T09:26:07.003Z,8.57
2023-02-19T09:28:33.928Z,7.32
2023-02-19T09:31:05.446Z,7.10
2023-02-19T09:33:35.043Z,7.25
2023-02-19T09:36:02.778Z,7.75
2023-02-19T09:38:33.894Z,7.47
2023-02-19T09:41:10.420Z,6.10
2023-02-19T09:43:37.571Z,5.60
2023-02-19T09:46:26.954Z,6.03
2023-02-19T09:49:03.530Z,8.68
2023-02-19T09:51:34.809Z,6.90
2023-02-19T09:54:07.846Z,6.65
2023-02-19T09:56:34.752Z,4.63
2023-02-19T09:59:06.002Z,5.57
2023-02-19T10:01:38.570Z,7.97
2023-02-19T10:04:05.191Z,6.10
2023-02-19T10:06:36.373Z,9.88
2023-02-19T10:09:20.206Z,5.22
2023-02-19T10:11:48.790Z,6.82
2023-02-19T10:14:52.699Z,5.28
2023-02-19T10:17:31.959Z,8.30
2023-02-19T10:19:58.624Z,5.55
2023-02-19T10:22:25.538Z,5.32
2023-02-19T10:24:55.520Z,3.55
2023-02-19T10:27:22.628Z,6.43
2023-02-19T10:29:50.411Z,6.63
2023-02-19T10:32:26.380Z,5.13
2023-02-19T10:35:15.856Z,4.63
2023-02-19T10:37:48.778Z,4.75
2023-02-19T10:40:20.286Z,7.35
2023-02-19T10:42:54.007Z,5.43
2023-02-19T10:45:27.460Z,6.78
2023-02-19T10:47:54.246Z,3.70
2023-02-19T10:50:30.723Z,6.28
2023-02-19T10:52:59.206Z,3.30
2023-02-19T10:55:37.934Z,3.58
2023-02-19T10:58:27.682Z,2.35
2023-02-19T11:01:15.846Z,4.10
2023-02-19T11:03:42.796Z,4.60
2023-02-19T11:06:11.848Z,3.42
2023-02-19T11:08:51.855Z,3.50
2023-02-19T11:11:37.775Z,3.53
2023-02-19T11:14:14.154Z,5.53
2023-02-19T11:16:47.018Z,5.32
2023-02-19T11:19:37.262Z,3.78
2023-02-19T11:22:32.006Z,3.53
2023-02-19T11:25:10.466Z,2.40
2023-02-19T11:27:54.635Z,2.30
2023-02-19T11:30:44.752Z,1.95
2023-02-19T11:33:17.377Z,2.97
2023-02-19T11:35:45.072Z,2.17
2023-02-19T11:38:14.277Z,1.92
2023-02-19T11:40:45.682Z,2.10
2023-02-19T11:43:42.185Z,2.35
2023-02-19T11:46:26.223Z,3.13
2023-02-19T11:48:55.868Z,2.50
2023-02-19T11:51:57.841Z,5.00
2023-02-19T11:54:36.375Z,2.38
2023-02-19T11:57:16.554Z,2.25
2023-02-19T11:59:55.323Z,1.60
2023-02-19T12:02:40.573Z,2.75
2023-02-19T12:05:19.133Z,2.20
2023-02-19T12:08:12.148Z,1.58
2023-02-19T12:11:07.793Z,2.17
2023-02-19T12:13:46.830Z,3.83
2023-02-19T12:16:19.374Z,1.92
2023-02-19T12:19:11.326Z,3.47
2023-02-19T12:21:55.583Z,2.33
2023-02-19T12:24:51.482Z,3.25
2023-02-19T12:27:37.616Z,1.80
2023-02-19T12:30:41.907Z,2.42
2023-02-19T12:33:35.341Z,3.30
2023-02-19T12:36:27.825Z,3.90
2023-02-19T12:39:00.239Z,4.28
2023-02-19T12:41:53.637Z,1.90
2023-02-19T12:44:28.695Z,4.38
2023-02-19T12:47:03.854Z,2.58
2023-02-19T12:49:39.461Z,2.28
2023-02-19T12:52:22.564Z,1.38
2023-02-19T12:54:55.667Z,1.52
2023-02-19T12:57:31.198Z,1.30
2023-02-19T13:00:07.350Z,2.03
2023-02-19T13:03:12.267Z,1.45
2023-02-19T13:05:58.728Z,2.70
2023-02-19T13:09:06.025Z,1.58
2023-02-19T13:12:14.548Z,3.28
2023-02-19T13:14:46.590Z,0.80
2023-02-19T13:17:26.619Z,1.38
2023-02-19T13:20:00.207Z,1.33
2023-02-19T13:23:20.690Z,0.80
2023-02-19T13:25:59.320Z,1.23
2023-02-19T13:28:39.233Z,1.13
2023-02-19T13:31:31.662Z,1.02
2023-02-19T13:34:47.798Z,0.82
2023-02-19T13:37:15.867Z,1.73
2023-02-19T13:39:50.527Z,1.00
2023-02-19T13:42:36.617Z,0.60
2023-02-19T13:45:09.224Z,1.02
2023-02-19T13:47:54.368Z,1.38
2023-02-19T13:50:34.475Z,3.50
2023-02-19T13:53:38.751Z,1.52
2023-02-19T13:56:34.537Z,2.17
2023-02-19T13:59:38.924Z,0.68
2023-02-19T14:02:12.441Z,0.85
2023-02-19T14:04:51.555Z,1.02
2023-02-19T14:07:18.030Z,1.75
2023-02-19T14:09:46.224Z,1.00
2023-02-19T14:12:15.027Z,0.73
2023-02-19T14:14:45.894Z,1.25
2023-02-19T14:17:47.842Z,1.15
2023-02-19T14:20:17.335Z,1.80
2023-02-19T14:22:52.091Z,2.65
2023-02-19T14:25:30.914Z,1.23
2023-02-19T14:28:06.448Z,1.70
2023-02-19T14:30:34.832Z,2.58
2023-02-19T14:33:10.559Z,1.27
2023-02-19T14:35:46.813Z,1.23
2023-02-19T14:38:44.587Z,1.17
2023-02-19T14:41:13.319Z,1.35
2023-02-19T14:43:41.631Z,2.75
2023-02-19T14:46:26.803Z,0.82
2023-02-19T14:48:53.589Z,1.05
2023-02-19T14:51:31.013Z,1.52
2023-02-19T14:53:58.968Z,1.45
2023-02-19T14:56:31.248Z,1.95
2023-02-19T14:59:09.643Z,1.00
2023-02-19T15:01:38.419Z,0.77
2023-02-19T15:04:05.844Z,1.65
2023-02-19T15:06:35.724Z,1.85
2023-02-19T15:09:05.678Z,1.10
2023-02-19T15:11:35.210Z,1.38
2023-02-19T15:14:05.134Z,1.50
2023-02-19T15:16:34.249Z,2.30
2023-02-19T15:19:01.506Z,1.73
2023-02-19T15:21:31.390Z,1.13
2023-02-19T15:24:03.898Z,1.10
2023-02-19T15:26:36.835Z,1.40
2023-02-19T15:29:24.959Z,1.13
2023-02-19T15:31:58.595Z,1.10
2023-02-19T15:34:27.761Z,1.98
2023-02-19T15:37:02.659Z,1.88
2023-02-19T15:39:36.507Z,1.88
2023-02-19T15:42:05.498Z,2.75
2023-02-19T15:44:36.368Z,4.45
2023-02-19T15:47:17.245Z,10.85
2023-02-19T15:49:57.122Z,5.28
2023-02-19T15:52:34.799Z,3.63
2023-02-19T15:55:15.098Z,1.10
2023-02-19T15:57:47.288Z,1.30
2023-02-19T16:00:23.774Z,2.53
2023-02-19T16:02:50.704Z,1.13
2023-02-19T16:05:26.357Z,1.63
2023-02-19T16:08:10.096Z,1.60
2023-02-19T16:10:40.985Z,1.92
2023-02-19T16:13:12.583Z,6.53
2023-02-19T16:15:43.734Z,2.13
2023-02-19T16:18:13.963Z,3.45
2023-02-19T16:20:47.603Z,3.78
2023-02-19T16:23:18.749Z,2.50
2023-02-19T16:25:47.643Z,1.58
2023-02-19T16:28:21.509Z,1.05
2023-02-19T16:30:59.981Z,3.05
2023-02-19T16:33:41.634Z,4.78
2023-02-19T16:36:18.534Z,1.98
2023-02-19T16:39:13.039Z,1.92
2023-02-19T16:41:45.233Z,2.20
2023-02-19T16:44:20.829Z,1.25
2023-02-19T16:46:52.878Z,1.38
2023-02-19T16:49:19.892Z,1.23
2023-02-19T16:51:47.070Z,1.95
2023-02-19T16:54:13.642Z,2.85
2023-02-19T16:56:43.157Z,2.33
2023-02-19T16:59:12.652Z,3.28
2023-02-19T17:01:42.509Z,1.10
2023-02-19T17:04:15.975Z,1.85
2023-02-19T17:06:42.652Z,4.60
2023-02-19T17:09:12.447Z,2.08
2023-02-19T17:11:40.675Z,2.25
2023-02-19T17:14:10.294Z,1.27
2023-02-19T17:16:40.811Z,3.85
2023-02-19T17:19:17.083Z,1.85
2023-02-19T17:21:45.183Z,1.75
2023-02-19T17:24:12.306Z,4.07
2023-02-19T17:26:42.776Z,4.53
2023-02-19T17:29:14.722Z,1.50
2023-02-19T17:31:44.465Z,2.58
2023-02-19T17:34:11.437Z,2.25
2023-02-19T17:36:41.066Z,3.97
2023-02-19T17:39:12.106Z,2.63
2023-02-19T17:41:41.980Z,2.55
2023-02-19T17:44:12.706Z,5.32
2023-02-19T17:46:43.334Z,10.75
2023-02-19T17:49:13.681Z,11.63
2023-02-19T17:51:42.848Z,17.98
2023-02-19T17:54:13.915Z,12.82
2023-02-19T17:56:46.117Z,5.20
2023-02-19T17:59:13.326Z,4.70
2023-02-19T18:01:43.261Z,2.13
2023-02-19T18:04:12.731Z,3.45
2023-02-19T18:06:42.959Z,3.17
2023-02-19T18:09:15.207Z,5.53
2023-02-19T18:11:46.315Z,3.33
2023-02-19T18:14:13.075Z,4.22
2023-02-19T18:16:50.695Z,4.57
2023-02-19T18:19:17.862Z,3.30
2023-02-19T18:21:44.637Z,5.20
2023-02-19T18:24:11.439Z,5.63
2023-02-19T18:26:42.361Z,3.78
2023-02-19T18:29:12.930Z,3.92
2023-02-19T18:31:42.595Z,4.63
2023-02-19T18:34:19.072Z,4.22
2023-02-19T18:36:47.181Z,5.65
2023-02-19T18:39:13.741Z,5.97
2023-02-19T18:41:46.885Z,6.78
2023-02-19T18:44:13.527Z,3.65
2023-02-19T18:46:42.708Z,7.53
2023-02-19T18:49:12.435Z,4.57
2023-02-19T18:51:41.947Z,3.95
2023-02-19T18:54:11.075Z,4.75
2023-02-19T18:56:52.112Z,5.07
2023-02-19T18:59:19.180Z,3.03
2023-02-19T19:01:46.104Z,10.82
2023-02-19T19:04:12.919Z,3.45
2023-02-19T19:06:45.600Z,3.85
2023-02-19T19:09:12.832Z,5.75
2023-02-19T19:11:44.457Z,5.47
2023-02-19T19:14:13.881Z,3.47
2023-02-19T19:16:44.555Z,5.05
2023-02-19T19:19:12.003Z,3.50
2023-02-19T19:21:41.960Z,2.85
2023-02-19T19:24:12.162Z,2.20
2023-02-19T19:26:45.351Z,3.75
2023-02-19T19:29:19.973Z,3.53
2023-02-19T19:31:46.925Z,2.17
2023-02-19T19:34:14.347Z,2.53
2023-02-19T19:36:44.762Z,4.25
2023-02-19T19:39:16.774Z,7.10
2023-02-19T19:41:44.596Z,4.65
2023-02-19T19:44:14.360Z,5.50
2023-02-19T19:46:47.289Z,2.85
2023-02-19T19:49:21.661Z,6.18
2023-02-19T19:51:48.844Z,3.13
2023-02-19T19:54:15.478Z,2.72
2023-02-19T19:56:47.425Z,3.55
2023-02-19T19:59:16.042Z,2.47
2023-02-19T20:01:50.189Z,16.75
2023-02-19T20:04:17.667Z,3.63
2023-02-19T20:06:44.172Z,3.40
2023-02-19T20:09:13.835Z,3.10
2023-02-19T20:11:48.632Z,6.15
2023-02-19T20:14:16.651Z,2.80
2023-02-19T20:16:44.829Z,4.45
2023-02-19T20:19:14.993Z,5.03
2023-02-19T20:21:46.028Z,3.28
2023-02-19T20:24:24.135Z,3.47
2023-02-19T20:26:53.265Z,4.68
2023-02-19T20:29:19.838Z,6.50
2023-02-19T20:31:51.017Z,4.72
2023-02-19T20:34:18.465Z,10.75
2023-02-19T20:36:46.575Z,5.82
2023-02-19T20:39:14.469Z,4.43
2023-02-19T20:41:47.082Z,4.40
2023-02-19T20:44:14.292Z,5.85
2023-02-19T20:46:49.098Z,5.18
2023-02-19T20:49:17.806Z,8.48
2023-02-19T20:51:58.040Z,9.90
2023-02-19T20:54:27.708Z,7.53
2023-02-19T20:56:56.351Z,7.63
2023-02-19T20:59:27.321Z,4.88
2023-02-19T21:01:53.924Z,6.40
2023-02-19T21:04:20.425Z,4.45
2023-02-19T21:06:46.930Z,7.50
2023-02-19T21:09:13.760Z,12.02
2023-02-19T21:11:42.723Z,10.23
2023-02-19T21:14:11.581Z,13.18
2023-02-19T21:16:38.153Z,13.25
2023-02-19T21:19:04.738Z,30.50
2023-02-19T21:21:31.940Z,17.73
2023-02-19T21:23:59.560Z,14.38
2023-02-19T21:26:36.320Z,10.05
2023-02-19T21:29:04.528Z,10.73
2023-02-19T21:31:44.979Z,11.18
2023-02-19T21:34:14.547Z,9.27
2023-02-19T21:36:45.490Z,9.98
2023-02-19T21:39:15.523Z,11.10
2023-02-19T21:41:45.384Z,10.23
2023-02-19T21:44:15.371Z,7.55
2023-02-19T21:46:44.760Z,13.95
2023-02-19T21:49:15.581Z,6.45
2023-02-19T21:51:44.832Z,6.68
2023-02-19T21:54:21.665Z,8.15
2023-02-19T21:56:48.831Z,8.75
2023-02-19T21:59:15.881Z,9.20
2023-02-19T22:01:46.053Z,9.52
2023-02-19T22:04:18.559Z,6.25
2023-02-19T22:06:45.495Z,4.45
2023-02-19T22:09:15.020Z,6.75
2023-02-19T22:11:44.025Z,8.80
2023-02-19T22:14:10.541Z,9.00
2023-02-19T22:16:37.199Z,8.35
2023-02-19T22:19:03.799Z,9.75
2023-02-19T22:21:34.439Z,9.65
2023-02-19T22:24:02.673Z,7.05
2023-02-19T22:26:34.379Z,8.80
2023-02-19T22:29:05.782Z,10.63
2023-02-19T22:31:33.220Z,10.77
2023-02-19T22:33:59.781Z,9.68
2023-02-19T22:36:28.487Z,10.77
2023-02-19T22:38:55.027Z,10.57
2023-02-19T22:41:22.661Z,10.13
2023-02-19T22:43:50.150Z,6.93
2023-02-19T22:46:19.994Z,5.70
2023-02-19T22:48:47.034Z,8.43
2023-02-19T22:51:20.481Z,7.40
2023-02-19T22:53:49.662Z,7.60
2023-02-19T22:56:21.275Z,7.55
2023-02-19T22:58:47.850Z,8.45
2023-02-19T23:01:16.380Z,5.53
2023-02-19T23:03:52.881Z,10.82
2023-02-19T23:06:26.533Z,10.52
2023-02-19T23:08:54.577Z,7.30
2023-02-19T23:11:29.851Z,10.95
2023-02-19T23:13:57.488Z,10.48
2023-02-19T23:16:24.413Z,16.92
2023-02-19T23:18:50.998Z,13.05
2023-02-19T23:21:18.785Z,10.68
2023-02-19T23:23:49.705Z,8.82
2023-02-19T23:26:19.945Z,11.27
2023-02-19T23:28:50.009Z,11.13
2023-02-19T23:31:19.423Z,10.98
2023-02-19T23:33:49.070Z,6.82
2023-02-19T23:36:18.214Z,9.50
2023-02-19T23:38:50.711Z,10.52
2023-02-19T23:41:20.570Z,9.55
2023-02-19T23:43:50.020Z,11.02
2023-02-19T23:46:18.152Z,10.93
2023-02-19T23:48:47.011Z,11.00
2023-02-19T23:51:13.929Z,8.97
2023-02-19T23:53:40.704Z,9.98
2023-02-19T23:56:07.489Z,5.95
2023-02-19T23:58:33.988Z,8.50
